createdAt,value
2019-03-13T00:01:17.099Z,99861.60
2019-03-13T00:03:45.809Z,99864.48
2019-03-13T00:06:15.129Z,99860.62
2019-03-13T00:08:44.246Z,99859.08
2019-03-13T00:11:13.076Z,99860.62
2019-03-13T00:13:41.958Z,99855.91
2019-03-13T00:16:10.768Z,99859.75
2019-03-13T00:18:39.486Z,99858.50
2019-03-13T00:21:08.357Z,99854.41
2019-03-13T00:23:37.079Z,99854.94
2019-03-13T00:26:05.804Z,99854.09
2019-03-13T00:28:34.950Z,99855.11
2019-03-13T00:31:03.675Z,99847.06
2019-03-13T00:33:32.397Z,99849.33
2019-03-13T00:36:01.216Z,99846.56
2019-03-13T00:38:29.922Z,99846.50
2019-03-13T00:40:58.636Z,99843.28
2019-03-13T00:43:27.419Z,99844.85
2019-03-13T00:45:56.135Z,99840.53
2019-03-13T00:48:24.855Z,99841.07
2019-03-13T00:50:54.009Z,99841.14
2019-03-13T00:53:22.735Z,99840.13
2019-03-13T00:55:51.455Z,99837.05
2019-03-13T00:58:20.331Z,99837.23
2019-03-13T01:00:53.609Z,99837.95
2019-03-13T01:03:30.157Z,99837.02
2019-03-13T01:06:09.474Z,99827.93
2019-03-13T01:08:38.436Z,99828.57
2019-03-13T01:11:07.167Z,99820.64
2019-03-13T01:13:35.881Z,99829.62
2019-03-13T01:16:05.063Z,99824.74
2019-03-13T01:18:33.783Z,99817.73
2019-03-13T01:21:02.505Z,99827.31
2019-03-13T01:23:31.627Z,99819.37
2019-03-13T01:26:00.351Z,99818.75
2019-03-13T01:28:29.072Z,99813.69
2019-03-13T01:31:08.367Z,99813.27
2019-03-13T01:33:37.097Z,99806.64
2019-03-13T01:36:07.235Z,99803.66
2019-03-13T01:38:36.165Z,99796.85
2019-03-13T01:41:04.988Z,99802.73
2019-03-13T01:43:33.716Z,99797.92
2019-03-13T01:46:02.577Z,99796.09
2019-03-13T01:48:31.289Z,99798.80
2019-03-13T01:51:00.013Z,99800.48
2019-03-13T01:53:28.781Z,99792.73
2019-03-13T01:55:57.518Z,99796.06
2019-03-13T01:58:26.256Z,99799.61
2019-03-13T02:00:55.045Z,99798.81
2019-03-13T02:03:23.770Z,99799.69
2019-03-13T02:05:52.506Z,99800.44
2019-03-13T02:08:21.390Z,99805.39
2019-03-13T02:10:50.123Z,99805.30
2019-03-13T02:13:18.853Z,99805.18
2019-03-13T02:15:47.760Z,99805.44
2019-03-13T02:18:16.449Z,99806.61
2019-03-13T02:20:45.181Z,99807.89
2019-03-13T02:23:13.997Z,99811.63
2019-03-13T02:25:42.717Z,99813.08
2019-03-13T02:28:11.446Z,99818.82
2019-03-13T02:30:40.342Z,99822.27
2019-03-13T02:33:09.067Z,99813.00
2019-03-13T02:35:37.805Z,99816.19
2019-03-13T02:38:06.572Z,99816.31
2019-03-13T02:40:35.361Z,99821.61
2019-03-13T02:43:04.180Z,99828.94
2019-03-13T02:45:32.976Z,99823.26
2019-03-13T02:48:01.704Z,99826.20
2019-03-13T02:50:30.438Z,99826.94
2019-03-13T02:52:59.319Z,99833.25
2019-03-13T02:55:28.055Z,99831.80
2019-03-13T02:57:56.771Z,99838.55
2019-03-13T03:00:39.077Z,99837.59
2019-03-13T03:03:27.350Z,99834.94
2019-03-13T03:05:57.196Z,99839.59
2019-03-13T03:08:25.949Z,99842.13
2019-03-13T03:10:54.678Z,99841.47
2019-03-13T03:13:23.770Z,99842.55
2019-03-13T03:15:52.486Z,99838.77
2019-03-13T03:18:21.209Z,99846.61
2019-03-13T03:20:50.013Z,99851.45
2019-03-13T03:23:18.734Z,99855.48
2019-03-13T03:25:47.463Z,99849.56
2019-03-13T03:28:16.213Z,99846.94
2019-03-13T03:30:44.946Z,99853.40
2019-03-13T03:33:13.667Z,99851.16
2019-03-13T03:35:42.531Z,99854.57
2019-03-13T03:38:11.255Z,99853.57
2019-03-13T03:40:41.387Z,99852.83
2019-03-13T03:43:10.565Z,99853.05
2019-03-13T03:45:39.291Z,99857.69
2019-03-13T03:48:08.007Z,99855.02
2019-03-13T03:50:36.891Z,99858.60
2019-03-13T03:53:05.621Z,99861.36
2019-03-13T03:55:34.344Z,99858.24
2019-03-13T03:58:04.426Z,99865.97
2019-03-13T04:00:33.146Z,99870.39
2019-03-13T04:03:01.860Z,99865.58
2019-03-13T04:05:30.734Z,99865.89
2019-03-13T04:07:59.462Z,99871.08
2019-03-13T04:10:28.165Z,99869.27
2019-03-13T04:12:56.938Z,99873.23
2019-03-13T04:15:25.663Z,99877.59
2019-03-13T04:17:54.388Z,99877.66
2019-03-13T04:20:23.521Z,99873.06
2019-03-13T04:22:52.250Z,99869.86
2019-03-13T04:25:23.883Z,99867.69
2019-03-13T04:27:52.762Z,99872.53
2019-03-13T04:30:21.491Z,99867.28
2019-03-13T04:32:50.219Z,99872.95
2019-03-13T04:35:19.036Z,99888.47
2019-03-13T04:37:47.739Z,99880.30
2019-03-13T04:40:16.595Z,99883.55
2019-03-13T04:42:45.455Z,99891.22
2019-03-13T04:45:14.185Z,99882.09
2019-03-13T04:47:42.851Z,99890.72
2019-03-13T04:50:12.888Z,99893.67
2019-03-13T04:52:41.590Z,99888.41
2019-03-13T04:55:13.156Z,99888.89
2019-03-13T04:57:41.995Z,99885.44
2019-03-13T05:00:18.087Z,99880.39
2019-03-13T05:02:47.202Z,99881.72
2019-03-13T05:05:38.174Z,99877.53
2019-03-13T05:08:06.914Z,99887.33
2019-03-13T05:10:35.603Z,99884.03
2019-03-13T05:13:04.310Z,99886.05
2019-03-13T05:15:33.260Z,99884.50
2019-03-13T05:18:01.942Z,99885.92
2019-03-13T05:20:30.632Z,99890.17
2019-03-13T05:22:59.707Z,99889.20
2019-03-13T05:25:28.405Z,99893.75
2019-03-13T05:27:57.089Z,99889.42
2019-03-13T05:30:25.929Z,99893.41
2019-03-13T05:32:54.603Z,99902.51
2019-03-13T05:35:23.280Z,99905.45
2019-03-13T05:37:52.028Z,99908.08
2019-03-13T05:40:20.704Z,99905.45
2019-03-13T05:42:49.384Z,99908.98
2019-03-13T05:45:18.102Z,99908.98
2019-03-13T05:47:46.782Z,99908.58
2019-03-13T05:50:15.444Z,99915.42
2019-03-13T05:52:44.160Z,99909.66
2019-03-13T05:55:12.832Z,99913.05
2019-03-13T05:57:41.507Z,99921.81
2019-03-13T06:00:14.121Z,99920.91
2019-03-13T06:02:42.797Z,99923.52
2019-03-13T06:05:11.574Z,99921.28
2019-03-13T06:07:40.311Z,99926.57
2019-03-13T06:10:13.936Z,99925.02
2019-03-13T06:12:42.610Z,99928.23
2019-03-13T06:15:13.676Z,99940.78
2019-03-13T06:17:42.357Z,99947.05
2019-03-13T06:20:13.347Z,99937.10
2019-03-13T06:22:42.169Z,99945.63
2019-03-13T06:25:12.461Z,99948.93
2019-03-13T06:27:41.132Z,99948.28
2019-03-13T06:30:21.188Z,99949.70
2019-03-13T06:32:49.863Z,99954.33
2019-03-13T06:35:18.612Z,99951.16
2019-03-13T06:37:47.721Z,99953.20
2019-03-13T06:40:17.999Z,99948.13
2019-03-13T06:42:46.780Z,99952.41
2019-03-13T06:45:16.743Z,99950.50
2019-03-13T06:47:45.531Z,99947.41
2019-03-13T06:50:22.408Z,99948.72
2019-03-13T06:52:51.075Z,99949.28
2019-03-13T06:55:19.762Z,99952.80
2019-03-13T06:57:48.618Z,99952.54
2019-03-13T07:00:40.917Z,99949.16
2019-03-13T07:03:23.727Z,99960.07
2019-03-13T07:05:53.983Z,99961.09
2019-03-13T07:08:30.200Z,99957.20
2019-03-13T07:11:03.466Z,99965.27
2019-03-13T07:13:39.635Z,99961.59
2019-03-13T07:16:09.893Z,99960.30
2019-03-13T07:18:49.109Z,99958.75
2019-03-13T07:21:19.354Z,99959.53
2019-03-13T07:23:52.593Z,99965.55
2019-03-13T07:26:22.935Z,99961.91
2019-03-13T07:28:53.185Z,99964.77
2019-03-13T07:31:41.809Z,99959.31
2019-03-13T07:34:28.275Z,99961.10
2019-03-13T07:37:04.740Z,99955.39
2019-03-13T07:39:47.041Z,99960.83
2019-03-13T07:42:23.335Z,99962.91
2019-03-13T07:44:59.378Z,99960.01
2019-03-13T07:47:32.767Z,99959.48
2019-03-13T07:50:03.006Z,99958.14
2019-03-13T07:52:43.105Z,99954.03
2019-03-13T07:55:13.347Z,99961.02
2019-03-13T07:57:46.565Z,99957.39
2019-03-13T08:00:16.890Z,99953.86
2019-03-13T08:02:56.031Z,99953.59
2019-03-13T08:05:42.418Z,99951.28
2019-03-13T08:08:18.604Z,99953.88
2019-03-13T08:11:07.665Z,99945.05
2019-03-13T08:13:40.911Z,99942.22
2019-03-13T08:16:29.487Z,99938.58
2019-03-13T08:19:16.004Z,99942.05
2019-03-13T08:21:49.166Z,99936.02
2019-03-13T08:24:34.741Z,99933.77
2019-03-13T08:27:05.097Z,99931.48
2019-03-13T08:29:35.368Z,99939.92
2019-03-13T08:32:08.362Z,99944.84
2019-03-13T08:34:38.780Z,99941.55
2019-03-13T08:37:17.920Z,99943.42
2019-03-13T08:40:06.443Z,99946.23
2019-03-13T08:42:36.815Z,99942.83
2019-03-13T08:45:22.722Z,99937.45
2019-03-13T08:48:04.879Z,99929.14
2019-03-13T08:50:44.532Z,99935.81
2019-03-13T08:53:14.828Z,99940.66
2019-03-13T08:55:47.849Z,99933.39
2019-03-13T08:58:18.208Z,99936.17
2019-03-13T09:00:48.496Z,99928.05
2019-03-13T09:03:36.844Z,99930.83
2019-03-13T09:06:10.129Z,99923.14
2019-03-13T09:08:56.988Z,99924.23
2019-03-13T09:11:27.282Z,99925.55
2019-03-13T09:14:01.496Z,99927.55
2019-03-13T09:16:34.814Z,99919.98
2019-03-13T09:19:08.089Z,99921.38
2019-03-13T09:21:41.770Z,99918.25
2019-03-13T09:24:14.782Z,99919.02
2019-03-13T09:27:01.201Z,99917.98
2019-03-13T09:29:31.671Z,99904.34
2019-03-13T09:32:02.063Z,99902.64
2019-03-13T09:34:41.288Z,99903.55
2019-03-13T09:37:11.569Z,99906.00
2019-03-13T09:39:53.885Z,99911.38
2019-03-13T09:42:24.173Z,99909.19
2019-03-13T09:45:06.458Z,99914.16
2019-03-13T09:47:39.740Z,99914.31
2019-03-13T09:50:12.749Z,99916.69
2019-03-13T09:52:43.055Z,99915.37
2019-03-13T09:55:22.713Z,99917.48
2019-03-13T09:57:56.065Z,99916.32
2019-03-13T10:00:26.354Z,99911.29
2019-03-13T10:03:12.863Z,99910.17
2019-03-13T10:05:58.413Z,99904.25
2019-03-13T10:08:31.772Z,99898.20
2019-03-13T10:11:02.060Z,99892.58
2019-03-13T10:13:47.508Z,99891.64
2019-03-13T10:16:17.799Z,99890.21
2019-03-13T10:19:03.098Z,99885.83
2019-03-13T10:21:49.959Z,99888.88
2019-03-13T10:24:26.485Z,99885.04
2019-03-13T10:26:56.776Z,99872.31
2019-03-13T10:29:43.282Z,99874.52
2019-03-13T10:32:13.675Z,99870.20
2019-03-13T10:34:46.957Z,99868.22
2019-03-13T10:37:17.306Z,99869.84
2019-03-13T10:39:56.847Z,99879.19
2019-03-13T10:42:30.286Z,99877.77
2019-03-13T10:45:03.628Z,99876.97
2019-03-13T10:47:33.919Z,99865.80
2019-03-13T10:50:06.528Z,99868.01
2019-03-13T10:52:53.025Z,99869.67
2019-03-13T10:55:23.432Z,99854.81
2019-03-13T10:58:09.933Z,99845.97
2019-03-13T11:00:52.748Z,99842.00
2019-03-13T11:03:32.089Z,99843.34
2019-03-13T11:06:05.214Z,99842.73
2019-03-13T11:08:44.678Z,99838.58
2019-03-13T11:11:15.141Z,99834.41
2019-03-13T11:13:45.428Z,99824.70
2019-03-13T11:16:32.076Z,99812.20
2019-03-13T11:19:02.367Z,99812.80
2019-03-13T11:21:32.657Z,99807.91
2019-03-13T11:24:09.474Z,99801.83
2019-03-13T11:26:39.767Z,99796.58
2019-03-13T11:29:10.057Z,99796.53
2019-03-13T11:31:56.764Z,99799.77
2019-03-13T11:34:33.368Z,99798.06
2019-03-13T11:37:06.933Z,99794.36
2019-03-13T11:39:43.188Z,99793.34
2019-03-13T11:42:19.947Z,99796.69
2019-03-13T11:44:52.996Z,99792.21
2019-03-13T11:47:23.291Z,99791.12
2019-03-13T11:50:09.032Z,99788.61
2019-03-13T11:52:48.366Z,99789.94
2019-03-13T11:55:18.886Z,99786.84
2019-03-13T11:57:51.878Z,99779.67
2019-03-13T12:00:34.254Z,99782.42
2019-03-13T12:03:22.917Z,99781.59
2019-03-13T12:05:56.035Z,99774.73
2019-03-13T12:08:26.329Z,99776.45
2019-03-13T12:11:09.182Z,99781.59
2019-03-13T12:13:51.751Z,99775.34
2019-03-13T12:16:31.220Z,99775.39
2019-03-13T12:19:01.513Z,99769.79
2019-03-13T12:21:48.323Z,99755.61
2019-03-13T12:24:18.619Z,99766.78
2019-03-13T12:27:07.459Z,99762.05
2019-03-13T12:29:37.747Z,99766.66
2019-03-13T12:32:10.739Z,99765.04
2019-03-13T12:34:41.093Z,99760.16
2019-03-13T12:37:28.040Z,99753.61
2019-03-13T12:40:01.497Z,99756.55
2019-03-13T12:42:47.062Z,99749.30
2019-03-13T12:45:18.120Z,99747.63
2019-03-13T12:48:16.120Z,99749.52
2019-03-13T12:50:38.815Z,99743.40
2019-03-13T12:53:18.149Z,99736.50
2019-03-13T12:55:51.670Z,99738.51
2019-03-13T12:58:31.010Z,99733.31
2019-03-13T13:01:07.192Z,99732.75
2019-03-13T13:03:37.514Z,99734.43
2019-03-13T13:06:14.166Z,99725.14
2019-03-13T13:08:50.605Z,99717.68
2019-03-13T13:11:23.894Z,99718.98
2019-03-13T13:14:00.096Z,99714.95
2019-03-13T13:16:30.825Z,99712.30
2019-03-13T13:18:59.539Z,99717.95
2019-03-13T13:21:28.260Z,99716.63
2019-03-13T13:23:57.345Z,99716.95
2019-03-13T13:26:26.067Z,99719.41
2019-03-13T13:28:54.793Z,99720.20
2019-03-13T13:31:23.549Z,99719.91
2019-03-13T13:33:52.352Z,99711.56
2019-03-13T13:36:21.083Z,99713.39
2019-03-13T13:38:50.281Z,99710.98
2019-03-13T13:41:18.999Z,99704.05
2019-03-13T13:43:47.726Z,99706.17
2019-03-13T13:46:27.187Z,99695.89
2019-03-13T13:48:55.918Z,99701.91
2019-03-13T13:51:24.651Z,99700.80
2019-03-13T13:53:55.705Z,99702.53
2019-03-13T13:56:23.988Z,99705.02
2019-03-13T13:58:52.714Z,99713.17
2019-03-13T14:01:22.985Z,99707.03
2019-03-13T14:03:51.714Z,99707.23
2019-03-13T14:06:20.446Z,99703.83
2019-03-13T14:08:49.211Z,99699.44
2019-03-13T14:11:17.920Z,99706.81
2019-03-13T14:13:46.641Z,99710.31
2019-03-13T14:16:15.430Z,99707.12
2019-03-13T14:18:44.140Z,99707.17
2019-03-13T14:21:12.864Z,99700.30
2019-03-13T14:23:41.999Z,99701.69
2019-03-13T14:26:10.718Z,99697.16
2019-03-13T14:28:39.484Z,99695.84
2019-03-13T14:31:08.651Z,99698.47
2019-03-13T14:33:37.369Z,99699.07
2019-03-13T14:36:06.094Z,99696.55
2019-03-13T14:38:34.894Z,99696.83
2019-03-13T14:41:03.594Z,99703.19
2019-03-13T14:43:32.317Z,99695.95
2019-03-13T14:46:01.180Z,99697.31
2019-03-13T14:48:31.369Z,99691.03
2019-03-13T14:51:00.093Z,99686.58
2019-03-13T14:53:28.964Z,99687.75
2019-03-13T14:55:57.695Z,99685.34
2019-03-13T14:58:26.489Z,99675.31
2019-03-13T15:00:55.261Z,99676.50
2019-03-13T15:03:23.998Z,99685.52
2019-03-13T15:05:52.719Z,99686.11
2019-03-13T15:08:21.578Z,99685.16
2019-03-13T15:10:50.300Z,99690.57
2019-03-13T15:13:19.093Z,99688.92
2019-03-13T15:15:47.946Z,99687.99
2019-03-13T15:18:16.663Z,99686.52
2019-03-13T15:20:45.395Z,99684.22
2019-03-13T15:23:14.550Z,99681.42
2019-03-13T15:25:43.287Z,99679.10
2019-03-13T15:28:12.007Z,99687.16
2019-03-13T15:30:41.235Z,99689.97
2019-03-13T15:33:09.955Z,99691.23
2019-03-13T15:35:38.669Z,99694.11
2019-03-13T15:38:07.462Z,99694.16
2019-03-13T15:40:36.176Z,99694.50
2019-03-13T15:43:04.902Z,99703.17
2019-03-13T15:45:37.129Z,99705.38
2019-03-13T15:48:05.843Z,99708.36
2019-03-13T15:50:34.567Z,99701.67
2019-03-13T15:53:03.511Z,99702.97
2019-03-13T15:55:32.231Z,99702.84
2019-03-13T15:58:00.953Z,99698.40
2019-03-13T16:00:31.148Z,99694.17
2019-03-13T16:02:59.870Z,99699.08
2019-03-13T16:05:28.647Z,99697.89
2019-03-13T16:07:57.761Z,99691.67
2019-03-13T16:10:26.482Z,99699.11
2019-03-13T16:12:56.774Z,99691.60
2019-03-13T16:15:31.549Z,99690.59
2019-03-13T16:18:00.361Z,99692.17
2019-03-13T16:20:29.080Z,99689.84
2019-03-13T16:22:59.428Z,99690.45
2019-03-13T16:25:28.151Z,99692.88
2019-03-13T16:27:56.858Z,99691.98
2019-03-13T16:30:28.419Z,99697.09
2019-03-13T16:32:57.138Z,99699.78
2019-03-13T16:35:26.635Z,99699.45
2019-03-13T16:37:55.664Z,99700.30
2019-03-13T16:40:24.384Z,99697.88
2019-03-13T16:42:53.120Z,99692.43
2019-03-13T16:45:22.870Z,99698.33
2019-03-13T16:47:51.582Z,99698.95
2019-03-13T16:50:22.538Z,99702.91
2019-03-13T16:52:51.603Z,99701.57
2019-03-13T16:55:21.130Z,99704.45
2019-03-13T16:57:49.959Z,99698.84
2019-03-13T17:00:20.955Z,99699.67
2019-03-13T17:02:50.715Z,99698.23
2019-03-13T17:05:19.534Z,99695.75
2019-03-13T17:07:50.042Z,99698.30
2019-03-13T17:10:21.465Z,99696.63
2019-03-13T17:12:50.287Z,99698.06
2019-03-13T17:15:23.224Z,99696.08
2019-03-13T17:17:52.445Z,99688.31
2019-03-13T17:20:29.418Z,99694.28
2019-03-13T17:22:58.444Z,99686.06
2019-03-13T17:25:27.178Z,99688.18
2019-03-13T17:27:56.370Z,99687.81
2019-03-13T17:30:29.947Z,99694.89
2019-03-13T17:32:59.174Z,99695.79
2019-03-13T17:35:28.003Z,99700.36
2019-03-13T17:37:56.823Z,99700.89
2019-03-13T17:40:27.696Z,99697.96
2019-03-13T17:42:56.529Z,99701.84
2019-03-13T17:45:25.656Z,99700.80
2019-03-13T17:47:54.772Z,99706.43
2019-03-13T17:50:26.717Z,99708.80
2019-03-13T17:52:55.479Z,99710.38
2019-03-13T17:55:25.137Z,99705.91
2019-03-13T17:57:54.102Z,99705.88
2019-03-13T18:00:32.431Z,99705.88
2019-03-13T18:03:01.632Z,99700.11
2019-03-13T18:05:30.354Z,99695.79
2019-03-13T18:07:59.076Z,99689.99
2019-03-13T18:10:27.871Z,99688.95
2019-03-13T18:12:56.588Z,99687.18
2019-03-13T18:15:25.299Z,99683.03
2019-03-13T18:17:54.070Z,99685.03
2019-03-13T18:20:24.567Z,99685.01
2019-03-13T18:22:53.274Z,99676.72
2019-03-13T18:25:22.149Z,99685.84
2019-03-13T18:27:51.023Z,99682.16
2019-03-13T18:30:34.567Z,99690.84
2019-03-13T18:33:03.380Z,99687.22
2019-03-13T18:35:32.204Z,99687.67
2019-03-13T18:38:00.973Z,99690.38
2019-03-13T18:40:29.699Z,99690.59
2019-03-13T18:42:58.527Z,99695.16
2019-03-13T18:45:32.213Z,99702.03
2019-03-13T18:48:00.985Z,99702.87
2019-03-13T18:50:30.276Z,99701.46
2019-03-13T18:52:59.054Z,99696.20
2019-03-13T18:55:35.941Z,99698.55
2019-03-13T18:58:05.009Z,99707.14
2019-03-13T19:00:37.930Z,99711.53
2019-03-13T19:03:08.619Z,99710.52
2019-03-13T19:05:38.560Z,99714.95
2019-03-13T19:08:07.777Z,99714.17
2019-03-13T19:10:36.499Z,99730.18
2019-03-13T19:13:06.119Z,99729.01
2019-03-13T19:15:34.892Z,99726.14
2019-03-13T19:18:03.629Z,99734.52
2019-03-13T19:20:33.175Z,99731.41
2019-03-13T19:23:01.884Z,99723.03
2019-03-13T19:25:30.610Z,99721.31
2019-03-13T19:27:59.565Z,99726.10
2019-03-13T19:30:37.733Z,99729.49
2019-03-13T19:33:07.823Z,99744.06
2019-03-13T19:35:36.529Z,99741.76
2019-03-13T19:38:10.898Z,99743.03
2019-03-13T19:40:39.981Z,99739.38
2019-03-13T19:43:08.767Z,99741.91
2019-03-13T19:45:47.668Z,99743.23
2019-03-13T19:48:16.380Z,99741.40
2019-03-13T19:50:45.109Z,99739.02
2019-03-13T19:53:14.058Z,99734.74
2019-03-13T19:55:42.775Z,99728.23
2019-03-13T19:58:14.005Z,99729.33
2019-03-13T20:00:42.039Z,99722.55
2019-03-13T20:03:13.100Z,99716.95
2019-03-13T20:05:45.729Z,99715.30
2019-03-13T20:08:13.888Z,99717.19
2019-03-13T20:10:45.836Z,99709.14
2019-03-13T20:13:14.561Z,99703.92
2019-03-13T20:15:43.777Z,99712.27
2019-03-13T20:18:12.498Z,99711.27
2019-03-13T20:20:41.219Z,99706.06
2019-03-13T20:23:12.440Z,99709.98
2019-03-13T20:25:41.233Z,99700.67
2019-03-13T20:28:10.046Z,99701.97
2019-03-13T20:30:39.139Z,99704.57
2019-03-13T20:33:07.859Z,99702.25
2019-03-13T20:35:37.296Z,99707.70
2019-03-13T20:38:06.273Z,99708.53
2019-03-13T20:40:34.991Z,99705.97
2019-03-13T20:43:03.717Z,99709.64
2019-03-13T20:45:32.915Z,99702.67
2019-03-13T20:48:01.603Z,99709.98
2019-03-13T20:50:37.393Z,99706.86
2019-03-13T20:53:00.821Z,99702.70
2019-03-13T20:55:29.554Z,99704.19
2019-03-13T20:57:58.267Z,99696.85
2019-03-13T21:00:28.137Z,99712.98
2019-03-13T21:02:57.567Z,99704.94
2019-03-13T21:05:26.889Z,99708.08
2019-03-13T21:07:55.864Z,99706.57
2019-03-13T21:10:24.975Z,99700.56
2019-03-13T21:12:53.700Z,99702.34
2019-03-13T21:15:26.531Z,99700.02
2019-03-13T21:17:55.436Z,99701.65
2019-03-13T21:20:24.310Z,99699.59
2019-03-13T21:22:53.426Z,99705.27
2019-03-13T21:25:24.289Z,99698.25
2019-03-13T21:27:53.011Z,99687.86
2019-03-13T21:30:26.281Z,99687.09
2019-03-13T21:32:55.299Z,99685.28
2019-03-13T21:35:24.422Z,99677.52
2019-03-13T21:37:53.789Z,99680.41
2019-03-13T21:40:24.112Z,99685.07
2019-03-13T21:42:54.776Z,99678.84
2019-03-13T21:45:23.597Z,99680.65
2019-03-13T21:47:52.339Z,99679.08
2019-03-13T21:50:21.252Z,99672.09
2019-03-13T21:52:50.126Z,99668.97
2019-03-13T21:55:19.641Z,99661.17
2019-03-13T21:57:51.771Z,99652.85
2019-03-13T22:00:24.204Z,99662.75
2019-03-13T22:02:53.029Z,99660.90
2019-03-13T22:05:26.334Z,99658.56
2019-03-13T22:07:53.356Z,99647.91
2019-03-13T22:10:22.175Z,99652.88
2019-03-13T22:12:51.390Z,99649.47
2019-03-13T22:15:21.658Z,99652.58
2019-03-13T22:17:50.395Z,99652.59
2019-03-13T22:20:19.670Z,99655.97
2019-03-13T22:22:48.536Z,99659.08
2019-03-13T22:25:20.618Z,99658.08
2019-03-13T22:27:49.555Z,99651.30
2019-03-13T22:30:23.039Z,99653.67
2019-03-13T22:32:52.245Z,99658.34
2019-03-13T22:35:20.952Z,99649.78
2019-03-13T22:37:50.297Z,99647.95
2019-03-13T22:40:19.318Z,99649.00
2019-03-13T22:42:48.044Z,99650.55
2019-03-13T22:45:18.450Z,99645.88
2019-03-13T22:47:48.487Z,99645.36
2019-03-13T22:50:21.724Z,99636.27
2019-03-13T22:52:50.823Z,99628.21
2019-03-13T22:55:19.640Z,99629.05
2019-03-13T22:57:48.459Z,99627.48
2019-03-13T23:00:47.276Z,99621.77
2019-03-13T23:03:17.001Z,99625.41
2019-03-13T23:05:45.827Z,99620.47
2019-03-13T23:08:14.608Z,99613.48
2019-03-13T23:10:43.540Z,99618.16
2019-03-13T23:13:12.271Z,99622.30
2019-03-13T23:15:41.069Z,99620.77
2019-03-13T23:18:09.806Z,99627.26
2019-03-13T23:20:38.517Z,99626.75
2019-03-13T23:23:07.423Z,99620.53
2019-03-13T23:25:36.148Z,99624.16
2019-03-13T23:28:05.079Z,99609.38
2019-03-13T23:30:34.287Z,99611.43
2019-03-13T23:33:03.016Z,99604.95
2019-03-13T23:35:31.736Z,99603.38
2019-03-13T23:38:00.879Z,99609.86
2019-03-13T23:40:29.600Z,99613.98
2019-03-13T23:42:58.311Z,99608.27
2019-03-13T23:45:27.202Z,99618.11
2019-03-13T23:47:55.925Z,99617.34
2019-03-13T23:50:24.649Z,99611.12
2019-03-13T23:52:53.523Z,99612.41
2019-03-13T23:55:22.247Z,99615.98
2019-03-13T23:57:50.970Z,99620.42
